createdAt,value
2019-02-23T00:02:13.633Z,10.67
2019-02-23T00:04:44.397Z,10.75
2019-02-23T00:07:15.177Z,10.87
2019-02-23T00:09:45.947Z,10.27
2019-02-23T00:12:16.700Z,9.90
2019-02-23T00:14:47.481Z,9.17
2019-02-23T00:17:18.227Z,11.37
2019-02-23T00:19:49.002Z,10.40
2019-02-23T00:22:19.759Z,9.57
2019-02-23T00:24:50.552Z,12.50
2019-02-23T00:27:21.312Z,11.27
2019-02-23T00:29:52.166Z,11.63
2019-02-23T00:32:22.946Z,10.90
2019-02-23T00:34:53.713Z,9.90
2019-02-23T00:37:24.484Z,10.33
2019-02-23T00:39:55.237Z,10.97
2019-02-23T00:42:26.009Z,11.97
2019-02-23T00:44:56.766Z,10.90
2019-02-23T00:47:27.534Z,11.53
2019-02-23T00:49:58.295Z,8.90
2019-02-23T00:52:29.065Z,10.90
2019-02-23T00:54:59.833Z,13.57
2019-02-23T00:57:30.612Z,12.17
2019-02-23T01:00:02.868Z,8.53
2019-02-23T01:02:33.631Z,10.30
2019-02-23T01:05:04.484Z,11.27
2019-02-23T01:07:35.346Z,10.13
2019-02-23T01:10:08.312Z,15.70
2019-02-23T01:12:39.083Z,11.22
2019-02-23T01:15:09.842Z,11.53
2019-02-23T01:17:40.706Z,11.70
2019-02-23T01:20:11.473Z,12.60
2019-02-23T01:22:42.254Z,10.37
2019-02-23T01:25:13.021Z,13.53
2019-02-23T01:27:43.777Z,12.67
2019-02-23T01:30:14.536Z,14.10
2019-02-23T01:32:45.315Z,9.37
2019-02-23T01:35:16.065Z,14.77
2019-02-23T01:37:46.838Z,11.87
2019-02-23T01:40:17.600Z,11.83
2019-02-23T01:42:48.367Z,13.73
2019-02-23T01:45:19.246Z,12.93
2019-02-23T01:47:50.016Z,12.70
2019-02-23T01:50:20.780Z,13.07
2019-02-23T01:52:51.551Z,15.03
2019-02-23T01:55:22.326Z,14.43
2019-02-23T01:57:53.106Z,13.40
2019-02-23T02:00:24.362Z,13.03
2019-02-23T02:02:55.136Z,12.23
2019-02-23T02:05:25.891Z,11.87
2019-02-23T02:07:56.763Z,10.83
2019-02-23T02:10:27.644Z,11.70
2019-02-23T02:12:58.422Z,12.53
2019-02-23T02:15:29.306Z,13.77
2019-02-23T02:18:00.080Z,12.23
2019-02-23T02:20:31.043Z,12.70
2019-02-23T02:23:01.816Z,12.03
2019-02-23T02:25:32.570Z,12.70
2019-02-23T02:28:03.339Z,13.70
2019-02-23T02:30:34.206Z,10.40
2019-02-23T02:33:05.005Z,12.67
2019-02-23T02:35:35.759Z,11.10
2019-02-23T02:38:06.524Z,11.47
2019-02-23T02:40:37.282Z,14.07
2019-02-23T02:43:08.050Z,12.60
2019-02-23T02:45:38.816Z,12.30
2019-02-23T02:48:09.583Z,13.73
2019-02-23T02:50:40.342Z,13.80
2019-02-23T02:53:11.110Z,11.63
2019-02-23T02:55:41.867Z,11.40
2019-02-23T02:58:12.641Z,17.00
2019-02-23T03:00:43.406Z,13.90
2019-02-23T03:03:14.231Z,12.07
2019-02-23T03:05:44.983Z,13.43
2019-02-23T03:08:15.744Z,11.03
2019-02-23T03:10:46.501Z,11.03
2019-02-23T03:13:17.275Z,10.83
2019-02-23T03:15:48.053Z,12.10
2019-02-23T03:18:18.823Z,12.90
2019-02-23T03:20:49.595Z,11.10
2019-02-23T03:23:20.363Z,13.13
2019-02-23T03:25:51.124Z,11.10
2019-02-23T03:28:21.903Z,11.43
2019-02-23T03:30:52.671Z,12.47
2019-02-23T03:33:23.432Z,12.33
2019-02-23T03:35:54.194Z,18.40
2019-02-23T03:38:24.973Z,13.90
2019-02-23T03:40:55.720Z,11.43
2019-02-23T03:43:26.512Z,10.90
2019-02-23T03:45:57.276Z,11.97
2019-02-23T03:48:28.048Z,11.77
2019-02-23T03:50:58.893Z,15.30
2019-02-23T03:53:29.655Z,13.90
2019-02-23T03:56:00.412Z,11.33
2019-02-23T03:58:31.199Z,14.30
2019-02-23T04:01:01.972Z,12.43
2019-02-23T04:03:32.790Z,12.77
2019-02-23T04:06:03.565Z,13.30
2019-02-23T04:08:34.338Z,13.47
2019-02-23T04:11:05.099Z,14.43
2019-02-23T04:13:35.861Z,14.23
2019-02-23T04:16:06.619Z,12.40
2019-02-23T04:18:37.501Z,13.73
2019-02-23T04:21:08.279Z,14.87
2019-02-23T04:23:39.048Z,14.23
2019-02-23T04:26:09.809Z,10.67
2019-02-23T04:28:40.592Z,14.57
2019-02-23T04:31:11.354Z,12.97
2019-02-23T04:33:42.116Z,15.47
2019-02-23T04:36:12.871Z,13.37
2019-02-23T04:38:43.654Z,17.60
2019-02-23T04:41:14.425Z,11.87
2019-02-23T04:43:45.191Z,12.17
2019-02-23T04:46:15.976Z,15.37
2019-02-23T04:48:46.751Z,13.70
2019-02-23T04:51:17.820Z,13.90
2019-02-23T04:53:48.597Z,16.02
2019-02-23T04:56:19.371Z,16.33
2019-02-23T04:58:50.151Z,15.10
2019-02-23T05:01:20.906Z,16.00
2019-02-23T05:03:51.681Z,14.57
2019-02-23T05:06:22.434Z,13.73
2019-02-23T05:08:53.207Z,14.90
2019-02-23T05:11:23.970Z,17.23
2019-02-23T05:13:54.743Z,16.17
2019-02-23T05:16:25.517Z,16.60
2019-02-23T05:18:56.294Z,13.07
2019-02-23T05:21:27.148Z,15.70
2019-02-23T05:23:57.925Z,18.03
2019-02-23T05:26:28.690Z,13.90
2019-02-23T05:28:59.452Z,14.17
2019-02-23T05:31:30.209Z,14.20
2019-02-23T05:34:00.978Z,14.67
2019-02-23T05:36:31.739Z,14.83
2019-02-23T05:39:03.810Z,14.57
2019-02-23T05:41:34.588Z,17.75
2019-02-23T05:44:05.350Z,13.93
2019-02-23T05:46:36.111Z,13.47
2019-02-23T05:49:06.895Z,11.07
2019-02-23T05:51:38.874Z,14.30
2019-02-23T05:54:10.047Z,12.63
2019-02-23T05:56:40.810Z,14.70
2019-02-23T05:59:11.598Z,14.90
2019-02-23T06:01:42.363Z,15.13
2019-02-23T06:04:13.135Z,14.20
2019-02-23T06:06:43.903Z,15.13
2019-02-23T06:09:14.670Z,21.20
2019-02-23T06:11:45.425Z,18.33
2019-02-23T06:14:16.198Z,15.10
2019-02-23T06:16:46.957Z,16.53
2019-02-23T06:19:17.731Z,15.13
2019-02-23T06:21:53.887Z,17.30
2019-02-23T06:24:21.172Z,18.10
2019-02-23T06:26:51.961Z,13.80
2019-02-23T06:29:22.723Z,14.53
2019-02-23T06:31:53.483Z,15.00
2019-02-23T06:34:24.260Z,12.30
2019-02-23T06:36:55.039Z,13.77
2019-02-23T06:39:25.824Z,13.70
2019-02-23T06:41:56.617Z,14.90
2019-02-23T06:44:27.378Z,13.47
2019-02-23T06:46:58.257Z,23.50
2019-02-23T06:49:29.012Z,13.13
2019-02-23T06:52:04.303Z,17.37
2019-02-23T06:54:32.478Z,15.72
2019-02-23T06:57:03.269Z,17.10
2019-02-23T06:59:34.091Z,18.50
2019-02-23T07:02:04.887Z,18.80
2019-02-23T07:04:35.684Z,15.70
2019-02-23T07:07:06.479Z,17.73
2019-02-23T07:09:37.245Z,16.23
2019-02-23T07:12:08.010Z,16.63
2019-02-23T07:14:38.774Z,18.97
2019-02-23T07:17:09.567Z,15.20
2019-02-23T07:19:40.331Z,18.27
2019-02-23T07:22:15.488Z,14.50
2019-02-23T07:24:43.767Z,15.43
2019-02-23T07:27:14.554Z,15.80
2019-02-23T07:29:45.320Z,16.83
2019-02-23T07:32:16.103Z,16.47
2019-02-23T07:34:46.854Z,15.80
2019-02-23T07:37:17.643Z,14.90
2019-02-23T07:39:48.403Z,16.57
2019-02-23T07:42:19.170Z,12.70
2019-02-23T07:44:49.964Z,13.70
2019-02-23T07:47:20.722Z,13.00
2019-02-23T07:49:51.483Z,15.43
2019-02-23T07:52:26.275Z,14.23
2019-02-23T07:54:54.923Z,14.07
2019-02-23T07:57:26.271Z,15.57
2019-02-23T07:59:56.995Z,12.58
2019-02-23T08:02:27.759Z,12.97
2019-02-23T08:04:58.534Z,12.53
2019-02-23T08:07:29.326Z,13.63
2019-02-23T08:10:00.221Z,12.40
2019-02-23T08:12:31.074Z,13.88
2019-02-23T08:15:02.943Z,11.83
2019-02-23T08:17:33.730Z,11.18
2019-02-23T08:20:10.158Z,10.50
2019-02-23T08:22:40.935Z,10.85
2019-02-23T08:25:13.097Z,11.10
2019-02-23T08:27:43.895Z,8.58
2019-02-23T08:30:15.660Z,7.67
2019-02-23T08:32:46.434Z,8.58
2019-02-23T08:35:17.194Z,8.80
2019-02-23T08:37:47.978Z,10.97
2019-02-23T08:40:18.743Z,7.70
2019-02-23T08:42:49.513Z,8.87
2019-02-23T08:45:20.273Z,7.77
2019-02-23T08:47:51.060Z,8.57
2019-02-23T08:50:21.822Z,9.13
2019-02-23T08:52:52.607Z,7.20
2019-02-23T08:55:23.371Z,9.13
2019-02-23T08:57:54.144Z,6.80
2019-02-23T09:00:25.006Z,8.43
2019-02-23T09:02:55.775Z,8.70
2019-02-23T09:05:26.640Z,8.77
2019-02-23T09:07:57.418Z,7.30
2019-02-23T09:10:28.176Z,9.10
2019-02-23T09:12:58.949Z,8.50
2019-02-23T09:15:29.725Z,7.73
2019-02-23T09:18:00.516Z,7.30
2019-02-23T09:20:31.295Z,9.13
2019-02-23T09:23:02.065Z,6.97
2019-02-23T09:25:32.915Z,7.97
2019-02-23T09:28:03.682Z,8.47
2019-02-23T09:30:34.459Z,7.60
2019-02-23T09:33:05.227Z,7.07
2019-02-23T09:35:36.008Z,6.80
2019-02-23T09:38:06.794Z,8.00
2019-02-23T09:40:37.573Z,8.43
2019-02-23T09:43:08.363Z,9.07
2019-02-23T09:45:39.122Z,8.30
2019-02-23T09:48:09.894Z,9.00
2019-02-23T09:50:40.652Z,6.60
2019-02-23T09:53:11.717Z,8.67
2019-02-23T09:55:42.502Z,8.78
2019-02-23T09:58:13.292Z,7.47
2019-02-23T10:00:44.056Z,8.80
2019-02-23T10:03:14.859Z,6.70
2019-02-23T10:05:45.624Z,9.27
2019-02-23T10:08:16.399Z,8.97
2019-02-23T10:10:47.161Z,7.10
2019-02-23T10:13:17.921Z,6.07
2019-02-23T10:15:48.691Z,8.27
2019-02-23T10:18:19.468Z,7.47
2019-02-23T10:20:50.275Z,8.50
2019-02-23T10:23:22.295Z,8.47
2019-02-23T10:25:53.260Z,6.53
2019-02-23T10:28:24.032Z,7.47
2019-02-23T10:30:54.809Z,6.37
2019-02-23T10:33:25.579Z,6.57
2019-02-23T10:35:56.644Z,9.90
2019-02-23T10:38:27.445Z,5.75
2019-02-23T10:40:59.843Z,8.30
2019-02-23T10:43:30.681Z,7.05
2019-02-23T10:46:01.447Z,8.80
2019-02-23T10:48:32.217Z,6.47
2019-02-23T10:51:04.003Z,9.10
2019-02-23T10:53:34.778Z,6.33
2019-02-23T10:56:05.740Z,8.53
2019-02-23T10:58:36.543Z,5.60
2019-02-23T11:01:07.313Z,12.70
2019-02-23T11:03:38.081Z,8.20
2019-02-23T11:06:10.788Z,6.90
2019-02-23T11:08:41.566Z,6.20
2019-02-23T11:11:12.340Z,5.90
2019-02-23T11:13:43.119Z,6.00
2019-02-23T11:16:13.878Z,5.97
2019-02-23T11:18:44.660Z,7.57
2019-02-23T11:21:15.440Z,13.53
2019-02-23T15:15:39.119Z,2.53
2019-02-23T15:18:19.507Z,4.07
2019-02-23T15:21:06.430Z,2.10
2019-02-23T15:23:46.939Z,2.53
2019-02-23T15:26:33.384Z,2.63
2019-02-23T15:29:11.174Z,2.53
2019-02-23T15:32:00.403Z,2.47
2019-02-23T15:34:57.697Z,2.13
2019-02-23T15:37:47.125Z,1.90
2019-02-23T15:40:27.799Z,2.42
2019-02-23T15:43:08.147Z,2.30
2019-02-23T15:45:48.931Z,3.00
2019-02-23T15:48:44.769Z,2.10
2019-02-23T15:51:15.511Z,3.80
2019-02-23T15:53:46.260Z,2.53
2019-02-23T15:56:17.031Z,2.97
2019-02-23T15:58:47.779Z,2.80
2019-02-23T16:01:18.596Z,2.97
2019-02-23T16:03:49.357Z,2.83
2019-02-23T16:06:23.185Z,2.27
2019-02-23T16:08:53.943Z,4.03
2019-02-23T16:11:24.704Z,2.87
2019-02-23T16:13:55.475Z,2.57
2019-02-23T16:16:26.250Z,2.63
2019-02-23T16:18:57.047Z,3.87
2019-02-23T16:21:27.825Z,3.40
2019-02-23T16:23:58.831Z,2.50
2019-02-23T16:26:29.599Z,3.33
2019-02-23T16:29:00.354Z,3.20
2019-02-23T16:31:31.121Z,5.57
2019-02-23T16:34:01.875Z,2.77
2019-02-23T16:36:32.644Z,2.73
2019-02-23T16:39:07.431Z,2.70
2019-02-23T16:41:38.333Z,3.58
2019-02-23T16:44:09.094Z,3.37
2019-02-23T16:46:39.869Z,2.40
2019-02-23T16:49:10.627Z,2.63
2019-02-23T16:51:41.443Z,5.33
2019-02-23T16:54:12.222Z,3.93
2019-02-23T16:56:42.980Z,4.43
2019-02-23T16:59:13.774Z,3.70
2019-02-23T17:01:44.523Z,3.93
2019-02-23T17:04:15.292Z,2.90
2019-02-23T17:06:46.068Z,4.23
2019-02-23T17:09:16.850Z,3.17
2019-02-23T17:11:47.612Z,4.17
2019-02-23T17:14:18.381Z,4.77
2019-02-23T17:16:49.134Z,3.70
2019-02-23T17:19:19.920Z,4.30
2019-02-23T17:21:50.678Z,4.30
2019-02-23T17:24:21.448Z,4.43
2019-02-23T17:26:52.230Z,3.20
2019-02-23T17:29:23.021Z,3.30
2019-02-23T17:31:53.777Z,6.70
2019-02-23T17:34:24.538Z,4.27
2019-02-23T17:36:55.324Z,5.73
2019-02-23T17:39:26.099Z,4.00
2019-02-23T17:41:56.859Z,4.90
2019-02-23T17:44:27.630Z,6.43
2019-02-23T17:46:58.383Z,5.23
2019-02-23T17:49:29.170Z,5.10
2019-02-23T17:52:00.037Z,5.03
2019-02-23T17:54:30.829Z,4.83
2019-02-23T17:57:01.578Z,4.67
2019-02-23T17:59:32.369Z,3.60
2019-02-23T18:02:03.841Z,4.67
2019-02-23T18:04:34.613Z,3.90
2019-02-23T18:07:05.386Z,7.77
2019-02-23T18:09:36.173Z,6.10
2019-02-23T18:12:06.934Z,7.33
2019-02-23T18:14:37.698Z,6.20
2019-02-23T18:17:08.460Z,5.90
2019-02-23T18:19:39.224Z,5.00
2019-02-23T18:22:09.997Z,7.30
2019-02-23T18:24:40.782Z,6.30
2019-02-23T18:27:11.533Z,8.13
2019-02-23T18:29:42.294Z,8.20
2019-02-23T18:32:13.049Z,8.93
2019-02-23T18:34:43.973Z,13.60
2019-02-23T18:37:15.002Z,8.30
2019-02-23T18:39:45.772Z,10.37
2019-02-23T18:42:16.535Z,10.80
2019-02-23T18:44:47.325Z,9.67
2019-02-23T18:47:18.093Z,9.27
2019-02-23T18:49:48.947Z,10.07
2019-02-23T18:52:19.700Z,7.57
2019-02-23T18:54:50.489Z,10.70
2019-02-23T18:57:21.256Z,8.67
2019-02-23T18:59:52.034Z,8.27
2019-02-23T19:02:22.805Z,6.87
2019-02-23T19:04:53.571Z,8.13
2019-02-23T19:07:24.323Z,12.00
2019-02-23T19:09:55.113Z,7.60
2019-02-23T19:12:25.867Z,9.93
2019-02-23T19:14:56.649Z,8.20
2019-02-23T19:17:27.425Z,8.77
2019-02-23T19:19:58.194Z,8.43
2019-02-23T19:22:28.952Z,14.20
2019-02-23T19:24:59.733Z,5.47
2019-02-23T19:27:30.504Z,8.00
2019-02-23T19:30:01.279Z,13.17
2019-02-23T19:32:32.034Z,9.10
2019-02-23T19:35:04.721Z,13.03
2019-02-23T19:37:35.494Z,10.65
2019-02-23T19:40:07.768Z,11.87
2019-02-23T19:42:38.529Z,9.65
2019-02-23T19:45:10.391Z,10.17
2019-02-23T19:47:41.156Z,13.78
2019-02-23T19:50:18.213Z,10.90
2019-02-23T19:52:48.971Z,10.32
2019-02-23T19:55:19.758Z,9.03
2019-02-23T19:57:50.516Z,7.27
2019-02-23T20:00:21.290Z,8.00
2019-02-23T20:02:52.069Z,7.23
2019-02-23T20:05:22.838Z,8.57
2019-02-23T20:07:53.589Z,8.20
2019-02-23T20:10:24.378Z,9.80
2019-02-23T20:12:55.135Z,9.53
2019-02-23T20:15:25.903Z,6.50
2019-02-23T20:17:56.661Z,9.60
2019-02-23T20:20:27.435Z,8.10
2019-02-23T20:22:58.193Z,9.53
2019-02-23T20:25:28.973Z,10.40
2019-02-23T20:27:59.750Z,9.67
2019-02-23T20:30:30.516Z,9.17
2019-02-23T20:33:01.274Z,10.07
2019-02-23T20:35:32.203Z,11.07
2019-02-23T20:38:03.109Z,8.40
2019-02-23T20:40:33.868Z,10.93
2019-02-23T20:43:04.649Z,10.10
2019-02-23T20:45:35.418Z,8.77
2019-02-23T20:48:06.180Z,8.17
2019-02-23T20:50:36.951Z,14.27
2019-02-23T20:53:07.703Z,8.57
2019-02-23T20:55:38.486Z,8.90
2019-02-23T20:58:09.242Z,10.67
2019-02-23T21:00:40.035Z,8.50
2019-02-23T21:03:10.798Z,13.20
2019-02-23T21:05:41.564Z,7.47
2019-02-23T21:08:12.335Z,10.67
2019-02-23T21:10:43.086Z,10.90
2019-02-23T21:13:13.840Z,9.47
2019-02-23T21:15:44.611Z,9.53
2019-02-23T21:18:15.385Z,8.70
2019-02-23T21:20:46.172Z,11.07
2019-02-23T21:23:16.927Z,9.30
2019-02-23T21:25:47.689Z,10.03
2019-02-23T21:28:18.445Z,9.80
2019-02-23T21:30:49.217Z,9.67
2019-02-23T21:33:19.973Z,8.93
2019-02-23T21:35:50.838Z,9.97
2019-02-23T21:38:21.602Z,10.87
2019-02-23T21:40:52.436Z,10.60
2019-02-23T21:43:23.205Z,10.77
2019-02-23T21:45:53.958Z,15.43
2019-02-23T21:48:24.752Z,12.63
2019-02-23T21:50:55.701Z,11.50
2019-02-23T21:53:26.613Z,11.73
2019-02-23T21:55:57.454Z,13.60
2019-02-23T21:58:28.194Z,10.80
2019-02-23T22:00:58.981Z,10.57
2019-02-23T22:03:29.739Z,8.70
2019-02-23T22:06:00.530Z,12.07
2019-02-23T22:08:31.302Z,12.00
2019-02-23T22:11:02.070Z,10.70
2019-02-23T22:13:32.844Z,12.73
2019-02-23T22:16:04.362Z,10.77
2019-02-23T22:18:35.528Z,14.87
2019-02-23T22:21:06.299Z,10.13
2019-02-23T22:23:37.207Z,12.53
2019-02-23T22:26:08.236Z,11.43
2019-02-23T22:28:38.997Z,13.78
2019-02-23T22:31:09.830Z,8.77
2019-02-23T22:33:41.110Z,12.13
2019-02-23T22:36:11.882Z,12.47
2019-02-23T22:38:42.666Z,9.47
2019-02-23T22:41:13.498Z,8.90
2019-02-23T22:43:44.264Z,10.23
2019-02-23T22:46:15.081Z,9.77
2019-02-23T22:48:45.849Z,16.20
2019-02-23T22:51:16.623Z,10.60
2019-02-23T22:53:47.399Z,11.57
2019-02-23T22:56:18.158Z,11.93
2019-02-23T22:58:49.050Z,11.20
2019-02-23T23:01:20.094Z,11.80
2019-02-23T23:03:50.976Z,7.83
2019-02-23T23:06:21.737Z,11.77
2019-02-23T23:08:52.500Z,13.30
2019-02-23T23:11:23.406Z,9.00
2019-02-23T23:13:54.273Z,11.17
2019-02-23T23:16:25.078Z,9.57
2019-02-23T23:18:55.836Z,11.07
2019-02-23T23:21:26.599Z,9.77
2019-02-23T23:23:57.382Z,10.23
2019-02-23T23:26:28.133Z,9.37
2019-02-23T23:28:58.923Z,10.47
2019-02-23T23:31:29.687Z,8.00
2019-02-23T23:34:00.471Z,11.17
2019-02-23T23:36:31.248Z,10.70
2019-02-23T23:39:03.912Z,11.60
2019-02-23T23:41:34.682Z,10.85
2019-02-23T23:44:05.441Z,11.73
2019-02-23T23:46:36.255Z,17.83
2019-02-23T23:49:06.978Z,9.40
2019-02-23T23:51:37.761Z,15.63
2019-02-23T23:54:08.548Z,11.47
2019-02-23T23:56:39.308Z,13.90
2019-02-23T23:59:10.082Z,9.97
